Time;durP1;ratioP1;P1;durP2;ratioP2;P2;SDS_P1;SDS_P2;PMS_P1;PMS_P2;Temp;Humidity;BMP_temperature;BMP_pressure;BME280_temperature;BME280_humidity;BME280_pressure;Samples;Min_cycle;Max_cycle;Signal;HPM_P1;HPM_P2
2021/11/23 00:00:37;;;;;;;4.00;1.70;;;;;;;-4.92;62.06;99757.06;5051263;28;20033;-58
2021/11/23 00:03:04;;;;;;;5.35;1.60;;;;;;;-4.85;62.39;99776.13;5052528;28;20040;-59
2021/11/23 00:05:30;;;;;;;4.80;2.00;;;;;;;-4.88;62.25;99769.19;5052345;28;20369;-57
2021/11/23 00:07:56;;;;;;;2.72;1.75;;;;;;;-4.89;62.22;99775.31;5051317;28;20481;-60
2021/11/23 00:10:21;;;;;;;3.45;1.70;;;;;;;-4.96;62.58;99758.03;5051268;28;20083;-58
2021/11/23 00:12:47;;;;;;;3.60;1.83;;;;;;;-4.95;62.56;99775.41;5052423;28;20106;-58
2021/11/23 00:15:13;;;;;;;3.83;1.80;;;;;;;-4.95;62.35;99770.19;5051079;28;20114;-59
2021/11/23 00:17:38;;;;;;;3.33;1.80;;;;;;;-4.99;62.68;99771.16;5051210;28;20412;-57
2021/11/23 00:20:05;;;;;;;4.10;2.28;;;;;;;-5.00;62.86;99780.72;5051488;28;20036;-59
2021/11/23 00:22:31;;;;;;;7.53;2.10;;;;;;;-5.42;63.03;99703.13;5032228;28;20041;-57
2021/11/23 00:24:58;;;;;;;4.72;2.08;;;;;;;-5.00;63.24;99772.03;5030591;28;20029;-59
2021/11/23 00:27:24;;;;;;;3.17;1.70;;;;;;;-5.16;62.76;99746.19;5031036;28;20033;-56
2021/11/23 00:29:51;;;;;;;4.82;1.90;;;;;;;-5.02;62.54;99771.19;5032457;28;20096;-56
2021/11/23 00:32:17;;;;;;;3.75;1.88;;;;;;;-5.00;62.92;99780.72;5032562;28;20112;-54
2021/11/23 00:34:42;;;;;;;3.28;1.77;;;;;;;-5.00;63.23;99783.31;5032058;28;20035;-54
2021/11/23 00:37:08;;;;;;;3.13;1.55;;;;;;;-5.02;62.70;99773.81;5032065;28;20033;-56
2021/11/23 00:39:34;;;;;;;4.32;1.92;;;;;;;-5.06;62.86;99781.69;5049400;28;20112;-59
2021/11/23 00:41:59;;;;;;;6.47;2.00;;;;;;;-5.08;62.94;99782.59;5051505;28;20103;-56
2021/11/23 00:44:26;;;;;;;2.80;1.70;;;;;;;-5.11;62.90;99773.06;5051672;28;20047;-51
2021/11/23 00:46:51;;;;;;;3.60;1.73;;;;;;;-5.15;63.26;99765.34;5051817;28;20029;-55
2021/11/23 00:49:17;;;;;;;5.82;1.60;;;;;;;-5.09;63.05;99781.72;5049892;28;20033;-59
2021/11/23 00:51:44;;;;;;;3.05;1.50;;;;;;;-5.11;63.06;99765.22;5051596;28;20044;-59
2021/11/23 00:54:11;;;;;;;3.97;1.58;;;;;;;-5.36;62.74;99731.72;5051624;28;20041;-58
2021/11/23 00:56:37;;;;;;;5.68;1.55;;;;;;;-5.12;62.87;99770.50;5051489;28;20636;-59
2021/11/23 00:59:03;;;;;;;2.90;1.40;;;;;;;-5.29;62.78;99752.50;5049474;28;20043;-57
2021/11/23 01:01:30;;;;;;;4.57;2.10;;;;;;;-5.16;63.04;99777.50;5051650;28;20644;-59
2021/11/23 01:03:56;;;;;;;7.93;2.25;;;;;;;-5.17;63.24;99769.72;5051265;28;20499;-57
2021/11/23 01:06:21;;;;;;;4.25;1.70;;;;;;;-5.19;63.04;99772.34;5051142;28;20029;-57
2021/11/23 01:08:48;;;;;;;2.00;1.38;;;;;;;-5.21;63.09;99766.28;5051754;28;20025;-61
2021/11/23 01:11:16;;;;;;;3.75;1.58;;;;;;;-5.20;62.70;99768.00;5049515;28;20039;-57
2021/11/23 01:13:42;;;;;;;2.92;1.58;;;;;;;-5.21;62.99;99771.50;5050099;28;20067;-58
2021/11/23 01:16:08;;;;;;;2.70;1.67;;;;;;;-5.23;62.81;99775.91;5051140;28;20115;-59
2021/11/23 01:18:35;;;;;;;3.30;1.38;;;;;;;-5.26;63.26;99768.13;5050952;28;20028;-57
2021/11/23 01:21:02;;;;;;;2.65;1.23;;;;;;;-5.25;63.11;99780.28;5049607;28;20071;-60
2021/11/23 01:23:28;;;;;;;3.35;1.50;;;;;;;-5.30;62.63;99769.06;5050051;28;20044;-61
2021/11/23 01:25:55;;;;;;;3.58;1.70;;;;;;;-5.31;62.92;99775.13;5050746;28;20110;-60
2021/11/23 01:28:22;;;;;;;2.83;1.48;;;;;;;-5.52;63.52;99733.72;5050958;28;20033;-60
2021/11/23 01:30:48;;;;;;;3.25;1.50;;;;;;;-5.56;63.43;99728.56;5049947;28;20112;-58
2021/11/23 01:33:14;;;;;;;5.70;1.60;;;;;;;-5.35;63.25;99769.97;5051060;28;20036;-58
2021/11/23 01:35:40;;;;;;;4.88;1.70;;;;;;;-5.34;63.48;99768.25;5051009;28;20025;-53
2021/11/23 01:38:06;;;;;;;2.92;1.73;;;;;;;-5.38;63.51;99758.75;5051126;28;20055;-57
2021/11/23 01:40:32;;;;;;;3.60;1.23;;;;;;;-5.34;63.26;99769.09;5048984;28;20365;-52
2021/11/23 01:42:57;;;;;;;3.67;1.35;;;;;;;-5.32;63.32;99766.47;5048741;28;20155;-61
2021/11/23 01:45:23;;;;;;;2.72;1.50;;;;;;;-5.59;63.04;99734.72;5051265;28;20392;-56
2021/11/23 01:47:49;;;;;;;2.72;1.50;;;;;;;-5.41;63.26;99764.84;5051228;28;20025;-59
2021/11/23 01:50:15;;;;;;;2.88;1.35;;;;;;;-5.35;63.20;99776.97;5050862;28;20043;-59
2021/11/23 01:52:43;;;;;;;5.03;1.65;;;;;;;-5.37;63.15;99770.91;5048939;28;20048;-59
2021/11/23 01:55:09;;;;;;;2.72;1.48;;;;;;;-5.38;63.37;99779.63;5051031;28;20048;-57
2021/11/23 01:57:36;;;;;;;4.80;1.65;;;;;;;-5.37;63.40;99776.97;5050575;28;20029;-57
2021/11/23 02:00:08;;;;;;;2.90;1.33;;;;;;;-5.38;63.81;99777.84;5050317;28;20358;-60
2021/11/23 02:02:33;;;;;;;4.88;1.45;;;;;;;-5.40;63.37;99777.03;5048722;28;20111;-60
2021/11/23 02:04:59;;;;;;;2.72;1.35;;;;;;;-5.44;63.36;99775.34;5051178;28;20112;-60
2021/11/23 02:07:25;;;;;;;4.75;1.88;;;;;;;-5.64;63.65;99736.53;5049524;28;20380;-59
2021/11/23 02:09:50;;;;;;;3.78;1.50;;;;;;;-5.40;63.82;99778.78;5050534;28;20101;-63
2021/11/23 02:12:17;;;;;;;2.58;1.75;;;;;;;-5.62;63.45;99735.63;5048982;28;20052;-60
2021/11/23 02:14:43;;;;;;;4.80;1.90;;;;;;;-5.43;63.58;99766.63;5051066;28;20063;-60
2021/11/23 02:17:09;;;;;;;4.93;1.48;;;;;;;-5.45;63.61;99765.81;5049356;28;20464;-59
2021/11/23 02:19:36;;;;;;;4.85;1.75;;;;;;;-5.52;63.54;99759.81;5049206;28;20457;-60
2021/11/23 02:22:02;;;;;;;2.90;1.40;;;;;;;-5.49;63.47;99771.97;5048942;28;20544;-59
2021/11/23 02:24:28;;;;;;;2.22;1.40;;;;;;;-5.50;64.31;99771.09;5047938;28;20104;-56
2021/11/23 02:26:53;;;;;;;3.53;1.20;;;;;;;-5.67;63.92;99749.59;5050613;28;20125;-56
2021/11/23 02:29:19;;;;;;;3.42;1.35;;;;;;;-5.56;64.13;99760.75;5050191;28;20490;-57
2021/11/23 02:31:45;;;;;;;3.25;1.25;;;;;;;-5.53;64.24;99771.13;5050027;28;20155;-59
2021/11/23 02:34:11;;;;;;;5.03;1.60;;;;;;;-5.52;64.35;99761.56;5048805;28;20503;-58
2021/11/23 02:36:38;;;;;;;4.00;1.50;;;;;;;-6.35;64.12;99629.88;5050635;28;20029;-59
2021/11/23 02:39:05;;;;;;;3.53;1.25;;;;;;;-5.51;63.91;99768.50;5049808;28;20025;-53
2021/11/23 02:41:31;;;;;;;3.58;1.35;;;;;;;-5.52;64.29;99772.84;5050325;28;20496;-59
2021/11/23 02:43:57;;;;;;;2.25;1.25;;;;;;;-5.56;64.08;99767.69;5048744;28;20060;-58
2021/11/23 02:46:23;;;;;;;3.60;1.73;;;;;;;-5.49;64.26;99771.97;5050426;28;20424;-60
2021/11/23 02:48:48;;;;;;;4.35;1.55;;;;;;;-5.52;64.57;99756.34;5050529;28;20029;-60
2021/11/23 02:51:17;;;;;;;2.97;1.13;;;;;;;-5.45;64.03;99776.25;5050261;28;20033;-58
2021/11/23 02:53:45;;;;;;;2.75;1.30;;;;;;;-5.38;64.46;99774.41;5050361;28;20148;-59
2021/11/23 02:56:12;;;;;;;2.40;1.10;;;;;;;-5.34;63.76;99776.91;5051786;28;20033;-60
2021/11/23 02:58:38;;;;;;;4.50;0.90;;;;;;;-5.28;63.28;99772.50;5053888;28;20111;-61
2021/11/23 03:01:06;;;;;;;2.55;1.27;;;;;;;-5.20;63.14;99781.91;5053914;28;20493;-61
2021/11/23 03:03:32;;;;;;;2.38;1.20;;;;;;;-5.21;62.98;99787.16;5053752;28;20112;-58
2021/11/23 03:05:58;;;;;;;2.90;1.10;;;;;;;-5.38;63.04;99767.41;5045539;28;20033;-58
2021/11/23 03:08:25;;;;;;;2.53;1.20;;;;;;;-5.30;63.01;99782.97;5033639;28;20040;-64
2021/11/23 03:10:51;;;;;;;2.80;1.15;;;;;;;-5.37;63.74;99769.13;5033998;28;20037;-58
2021/11/23 03:13:17;;;;;;;2.90;1.48;;;;;;;-5.39;63.54;99781.34;5033434;28;20026;-58
2021/11/23 03:15:43;;;;;;;3.97;1.35;;;;;;;-5.41;63.23;99777.91;5035088;28;20057;-58
2021/11/23 03:18:11;;;;;;;2.47;1.30;;;;;;;-5.30;63.51;99784.72;5053562;28;20492;-58
2021/11/23 03:20:38;;;;;;;3.95;1.33;;;;;;;-5.34;63.05;99771.69;5053478;28;20483;-60
2021/11/23 03:23:05;;;;;;;2.58;1.45;;;;;;;-5.39;63.46;99772.69;5053350;28;20025;-58
2021/11/23 03:25:31;;;;;;;1.50;1.10;;;;;;;-5.41;63.39;99780.50;5052460;28;20040;-59
2021/11/23 03:27:57;;;;;;;3.60;1.25;;;;;;;-5.42;63.41;99786.63;5035494;28;20448;-61
2021/11/23 03:30:26;;;;;;;3.65;1.17;;;;;;;-5.39;63.89;99777.91;5031940;28;20050;-59
2021/11/23 03:32:54;;;;;;;2.75;1.30;;;;;;;-5.35;63.70;99787.41;5034019;28;20487;-59
2021/11/23 03:35:21;;;;;;;3.78;1.60;;;;;;;-5.36;63.75;99789.13;5033268;28;20040;-61
2021/11/23 03:37:47;;;;;;;3.05;1.27;;;;;;;-5.65;63.60;99740.88;5043193;28;20028;-61
2021/11/23 03:40:14;;;;;;;2.72;1.30;;;;;;;-5.37;63.44;99791.78;5052200;28;20120;-60
2021/11/23 03:42:40;;;;;;;2.35;1.23;;;;;;;-5.37;63.39;99797.00;5054547;28;20029;-60
2021/11/23 03:45:07;;;;;;;3.70;1.40;;;;;;;-5.34;63.66;99794.34;5052102;28;20068;-62
2021/11/23 03:47:35;;;;;;;4.93;1.67;;;;;;;-5.34;63.69;99803.00;5051165;28;20033;-60
2021/11/23 03:50:01;;;;;;;1.83;1.10;;;;;;;-5.35;63.41;99800.44;5053501;28;20032;-62
2021/11/23 03:52:27;;;;;;;2.60;1.15;;;;;;;-5.30;63.58;99809.06;5053278;28;20449;-62
2021/11/23 03:54:53;;;;;;;3.08;1.10;;;;;;;-5.30;63.52;99808.22;5053224;28;20033;-61
2021/11/23 03:57:20;;;;;;;5.70;1.50;;;;;;;-5.30;63.86;99810.81;5052408;28;20056;-60
2021/11/23 03:59:48;;;;;;;2.47;1.30;;;;;;;-5.29;63.69;99796.88;5051128;28;20405;-56
2021/11/23 04:02:17;;;;;;;5.00;1.33;;;;;;;-5.30;63.57;99800.38;5051574;28;20039;-60
2021/11/23 04:04:43;;;;;;;2.45;1.30;;;;;;;-5.35;63.90;99779.56;5052404;28;20099;-62
2021/11/23 04:07:09;;;;;;;2.92;1.15;;;;;;;-5.21;63.82;99800.22;5050364;28;20025;-61
2021/11/23 04:09:34;;;;;;;4.13;1.20;;;;;;;-5.12;63.31;99792.22;5050813;28;20393;-62
2021/11/23 04:12:00;;;;;;;5.75;1.35;;;;;;;-5.10;63.53;99782.63;5052683;28;20041;-58
2021/11/23 04:14:26;;;;;;;4.70;1.42;;;;;;;-4.92;63.06;99788.41;5052573;28;20047;-58
2021/11/23 04:16:51;;;;;;;3.85;1.20;;;;;;;-4.80;62.91;99787.34;5052205;28;20544;-59
2021/11/23 04:19:17;;;;;;;4.35;1.55;;;;;;;-4.86;62.63;99759.56;5051207;28;20025;-60
2021/11/23 04:21:42;;;;;;;7.97;1.95;;;;;;;-4.60;62.09;99789.56;5051468;28;20044;-62
2021/11/23 04:24:08;;;;;;;3.83;1.70;;;;;;;-4.54;62.21;99781.63;5052136;28;20044;-62
2021/11/23 04:26:34;;;;;;;1.88;1.13;;;;;;;-4.43;61.91;99788.38;5052304;28;20082;-61
2021/11/23 04:28:59;;;;;;;4.10;1.45;;;;;;;-4.38;61.72;99783.94;5050193;28;20049;-63
2021/11/23 04:31:25;;;;;;;4.00;1.50;;;;;;;-4.34;61.49;99790.81;5033002;28;20517;-57
2021/11/23 04:33:50;;;;;;;4.90;1.95;;;;;;;-4.28;61.51;99793.31;5032218;28;20040;-60
2021/11/23 04:36:16;;;;;;;4.40;1.80;;;;;;;-4.28;61.68;99782.88;5031210;28;20052;-62
2021/11/23 04:38:42;;;;;;;3.28;1.38;;;;;;;-4.17;61.27;99800.94;5032667;28;20033;-63
2021/11/23 04:41:07;;;;;;;1.88;1.10;;;;;;;-4.12;61.73;99803.44;5033291;28;20083;-62
2021/11/23 04:43:33;;;;;;;4.20;1.42;;;;;;;-4.08;61.48;99797.28;5030584;28;20040;-61
2021/11/23 04:45:59;;;;;;;4.05;1.48;;;;;;;-4.06;61.25;99800.72;5031875;28;20478;-63
2021/11/23 04:48:25;;;;;;;7.30;1.70;;;;;;;-4.04;61.26;99798.94;5030556;28;20033;-63
2021/11/23 04:50:51;;;;;;;3.72;1.55;;;;;;;-4.07;61.39;99799.00;5039632;28;20061;-60
2021/11/23 04:53:16;;;;;;;5.22;1.48;;;;;;;-4.05;61.33;99795.44;5051832;28;20065;-59
2021/11/23 04:55:42;;;;;;;5.25;1.30;;;;;;;-4.11;61.63;99792.97;5051273;28;20469;-62
2021/11/23 04:58:08;;;;;;;4.82;1.70;;;;;;;-3.99;61.01;99794.47;5051528;28;20111;-62
2021/11/23 05:00:33;;;;;;;3.10;1.60;;;;;;;-3.98;61.53;99783.13;5048393;28;20430;-60
2021/11/23 05:02:59;;;;;;;5.25;1.70;;;;;;;-4.10;61.47;99759.81;5031700;28;20080;-63
2021/11/23 05:05:26;;;;;;;4.97;1.90;;;;;;;-3.77;60.92;99807.09;5030467;28;20121;-60
2021/11/23 05:07:51;;;;;;;8.13;3.50;;;;;;;-3.73;60.92;99805.28;5031399;28;20056;-59
2021/11/23 05:10:17;;;;;;;2.90;1.63;;;;;;;-3.74;60.68;99801.78;5031176;28;20069;-60
2021/11/23 05:12:43;;;;;;;2.55;1.58;;;;;;;-3.59;61.40;99815.44;5032333;28;20103;-61
2021/11/23 05:15:09;;;;;;;3.67;1.50;;;;;;;-3.53;61.01;99804.81;5030687;28;20045;-59
2021/11/23 05:17:37;;;;;;;3.85;1.90;;;;;;;-3.43;60.56;99805.47;5030916;28;20047;-57
2021/11/23 05:20:05;;;;;;;8.25;1.80;;;;;;;-3.39;60.49;99801.88;5031570;28;20449;-57
2021/11/23 05:22:31;;;;;;;5.28;2.00;;;;;;;-3.63;60.91;99763.13;5032340;28;20034;-60
2021/11/23 05:24:57;;;;;;;4.80;1.90;;;;;;;-3.37;60.37;99802.69;5031282;28;20092;-62
2021/11/23 05:27:22;;;;;;;3.65;1.75;;;;;;;-3.39;60.73;99807.97;5031211;28;20087;-58
2021/11/23 05:29:48;;;;;;;5.25;1.77;;;;;;;-3.44;61.22;99812.44;5029968;28;20107;-59
2021/11/23 05:32:14;;;;;;;3.63;1.88;;;;;;;-3.49;60.84;99809.09;5032156;28;20047;-57
2021/11/23 05:34:39;;;;;;;7.05;1.83;;;;;;;-3.65;60.93;99788.47;5031230;28;20057;-60
2021/11/23 05:37:05;;;;;;;3.72;1.52;;;;;;;-3.50;61.31;99815.22;5031144;28;20033;-59
2021/11/23 05:39:30;;;;;;;5.88;1.90;;;;;;;-3.46;61.64;99822.09;5031372;28;20363;-61
2021/11/23 05:41:56;;;;;;;7.45;2.00;;;;;;;-3.42;61.29;99828.13;5030724;28;20021;-60
2021/11/23 05:44:22;;;;;;;4.55;2.03;;;;;;;-3.55;61.56;99788.28;5047760;28;20028;-62
2021/11/23 05:46:47;;;;;;;4.38;1.60;;;;;;;-3.42;61.08;99787.09;5050962;28;20078;-60
2021/11/23 05:49:15;;;;;;;5.10;2.03;;;;;;;-3.08;60.76;99836.06;5050844;28;20124;-59
2021/11/23 05:51:40;;;;;;;3.95;1.65;;;;;;;-3.13;60.20;99800.38;5050527;28;20032;-57
2021/11/23 05:54:06;;;;;;;3.15;1.65;;;;;;;-2.74;60.02;99831.72;5048967;28;20051;-62
2021/11/23 05:56:32;;;;;;;2.10;1.48;;;;;;;-2.46;59.50;99831.84;5051557;28;20082;-60
2021/11/23 05:58:58;;;;;;;3.72;1.70;;;;;;;-2.26;58.73;99819.13;5049001;28;20469;-62
2021/11/23 06:01:23;;;;;;;6.53;2.15;;;;;;;-1.94;57.91;99828.66;5048943;28;20095;-59
2021/11/23 06:03:49;;;;;;;4.93;1.83;;;;;;;-1.50;57.38;99824.75;5048945;28;20036;-58
2021/11/23 06:06:14;;;;;;;3.05;1.70;;;;;;;-1.01;56.16;99830.25;5050658;28;20461;-60
2021/11/23 06:08:40;;;;;;;4.35;2.00;;;;;;;-0.46;54.72;99835.41;5049828;28;20079;-62
2021/11/23 06:11:06;;;;;;;3.70;1.58;;;;;;;-0.17;53.68;99830.00;5048789;28;20083;-61
2021/11/23 06:13:32;;;;;;;5.18;1.50;;;;;;;-0.22;53.18;99834.59;5050785;28;20075;-61
2021/11/23 06:15:58;;;;;;;4.90;1.98;;;;;;;-0.52;53.76;99822.44;5048762;28;20052;-61
2021/11/23 06:18:24;;;;;;;7.05;1.90;;;;;;;-0.78;54.68;99820.72;5050342;28;20583;-62
2021/11/23 06:20:53;;;;;;;7.22;2.20;;;;;;;-1.01;55.00;99846.00;5048716;28;20128;-62
2021/11/23 06:23:20;;;;;;;5.35;2.10;;;;;;;-1.19;55.53;99847.47;5050190;28;20039;-60
2021/11/23 06:25:48;;;;;;;4.13;1.88;;;;;;;-1.35;56.37;99847.06;5047732;28;20485;-58
2021/11/23 06:28:15;;;;;;;4.65;1.92;;;;;;;-1.48;56.94;99846.59;5050402;28;20029;-61
2021/11/23 06:30:42;;;;;;;2.70;1.70;;;;;;;-1.55;57.28;99845.06;5053217;28;20069;-59
2021/11/23 06:33:08;;;;;;;5.20;1.73;;;;;;;-1.56;57.13;99838.97;5054207;28;20040;-59
2021/11/23 06:35:35;;;;;;;4.22;1.88;;;;;;;-1.62;57.33;99834.75;5048197;28;20461;-63
2021/11/23 06:38:00;;;;;;;5.97;1.83;;;;;;;-1.53;56.77;99848.50;5044212;28;20048;-62
2021/11/23 06:40:26;;;;;;;7.07;2.17;;;;;;;-1.54;56.78;99854.66;5054677;28;20032;-60
2021/11/23 06:42:52;;;;;;;4.57;1.80;;;;;;;-1.65;56.97;99847.97;5054390;28;20025;-60
2021/11/23 06:45:18;;;;;;;5.15;2.00;;;;;;;-1.63;57.75;99856.66;5053144;28;20043;-60
2021/11/23 06:47:45;;;;;;;6.65;1.90;;;;;;;-1.57;57.84;99845.09;5054185;28;20033;-60
2021/11/23 06:50:12;;;;;;;5.53;2.20;;;;;;;-1.53;57.28;99845.88;5052477;28;20036;-61
2021/11/23 06:52:38;;;;;;;4.03;1.92;;;;;;;-1.45;56.84;99847.34;5053787;28;20358;-61
2021/11/23 06:55:04;;;;;;;3.67;1.85;;;;;;;-1.39;57.16;99851.56;5053103;28;20033;-60
2021/11/23 06:57:29;;;;;;;5.57;2.00;;;;;;;-1.43;57.40;99828.94;5051769;28;20079;-62
2021/11/23 06:59:55;;;;;;;5.80;2.25;;;;;;;-1.23;56.82;99841.44;5054183;28;20025;-61
2021/11/23 07:02:20;;;;;;;8.40;2.13;;;;;;;-1.10;56.48;99862.06;5047041;28;20110;-59
2021/11/23 07:04:46;;;;;;;4.53;2.28;;;;;;;-1.15;56.71;99864.84;5041446;28;20531;-60
2021/11/23 07:07:12;;;;;;;5.45;2.22;;;;;;;-1.16;57.27;99857.88;5042150;28;20583;-61
2021/11/23 07:09:38;;;;;;;4.32;2.08;;;;;;;-1.26;56.57;99841.53;5046152;28;20048;-61
2021/11/23 07:12:05;;;;;;;5.25;2.55;;;;;;;-1.00;57.21;99874.00;5042236;28;20504;-60
2021/11/23 07:14:31;;;;;;;5.00;2.22;;;;;;;-0.98;56.80;99866.06;5041817;28;20055;-60
2021/11/23 07:16:57;;;;;;;6.93;2.35;;;;;;;-1.00;56.07;99866.13;5041029;28;20030;-60
2021/11/23 07:19:23;;;;;;;11.13;2.63;;;;;;;-0.98;56.85;99876.56;5047674;28;20112;-61
2021/11/23 07:21:49;;;;;;;7.40;2.78;;;;;;;-0.95;56.87;99855.47;5041315;28;20435;-61
2021/11/23 07:24:14;;;;;;;6.90;2.28;;;;;;;-0.92;56.71;99829.94;5041785;28;20136;-61
2021/11/23 07:26:40;;;;;;;8.65;2.25;;;;;;;-0.42;55.86;99857.19;5033428;28;20418;-59
2021/11/23 07:29:07;;;;;;;6.03;2.88;;;;;;;0.01;54.59;99872.38;5033384;28;20065;-61
2021/11/23 07:31:33;;;;;;;6.05;2.28;;;;;;;0.19;54.05;99860.28;5033566;28;20030;-60
2021/11/23 07:33:59;;;;;;;7.18;2.63;;;;;;;0.25;53.52;99836.41;5031946;28;20041;-59
2021/11/23 07:36:25;;;;;;;3.90;2.22;;;;;;;0.52;53.27;99857.31;5039995;28;20018;-60
2021/11/23 07:38:55;;;;;;;9.75;2.55;;;;;;;0.62;52.56;99874.47;5052039;28;20028;-62
2021/11/23 07:41:20;;;;;;;6.03;2.40;;;;;;;0.70;52.96;99871.56;5052069;28;20029;-61
2021/11/23 07:43:46;;;;;;;6.20;2.40;;;;;;;0.92;52.64;99875.97;5052722;28;20039;-58
2021/11/23 07:46:13;;;;;;;6.05;2.70;;;;;;;1.18;51.67;99874.91;5051430;28;20469;-56
2021/11/23 07:48:38;;;;;;;6.63;2.58;;;;;;;1.47;51.13;99867.59;5049980;28;20059;-62
2021/11/23 07:51:05;;;;;;;7.53;2.47;;;;;;;1.58;50.32;99864.50;5048017;28;20056;-61
2021/11/23 07:53:31;;;;;;;10.23;3.15;;;;;;;1.55;50.42;99865.47;5052622;28;20107;-61
2021/11/23 07:55:57;;;;;;;7.53;2.70;;;;;;;1.46;51.00;99865.00;5035494;28;20452;-63
2021/11/23 07:58:23;;;;;;;7.60;3.15;;;;;;;1.53;50.93;99871.72;5028858;28;20461;-62
2021/11/23 08:00:48;;;;;;;4.55;2.53;;;;;;;1.51;50.76;99876.22;5031886;28;20117;-62
2021/11/23 08:03:14;;;;;;;7.65;2.63;;;;;;;1.37;50.75;99874.16;5029247;28;20030;-65
2021/11/23 08:05:40;;;;;;;6.45;2.47;;;;;;;1.29;51.32;99864.78;5048735;28;20060;-62
2021/11/23 08:08:09;;;;;;;6.30;2.65;;;;;;;1.42;51.56;99877.44;5050887;28;20037;-63
2021/11/23 08:10:35;;;;;;;11.07;3.05;;;;;;;1.64;51.27;99884.47;5051247;28;20037;-64
2021/11/23 08:13:02;;;;;;;8.70;3.17;;;;;;;1.88;50.16;99886.97;5049785;28;20060;-62
2021/11/23 08:15:28;;;;;;;5.05;3.10;;;;;;;1.91;50.17;99863.06;5033264;28;20037;-63
2021/11/23 08:17:53;;;;;;;4.13;2.72;;;;;;;1.83;50.01;99872.19;5031896;28;20494;-62
2021/11/23 08:20:19;;;;;;;12.40;3.25;;;;;;;1.60;50.97;99861.78;5032437;28;20033;-67
2021/11/23 08:22:46;;;;;;;11.52;3.22;;;;;;;1.41;51.36;99867.81;5032424;28;20470;-64
2021/11/23 08:25:12;;;;;;;8.55;3.10;;;;;;;1.29;51.36;99875.34;5039754;28;20045;-63
2021/11/23 08:27:38;;;;;;;9.85;3.30;;;;;;;1.23;51.71;99867.69;5045806;28;20500;-65
2021/11/23 08:30:07;;;;;;;7.22;2.80;;;;;;;1.25;51.96;99863.22;5032897;28;20081;-65
2021/11/23 08:32:33;;;;;;;5.47;2.63;;;;;;;1.22;51.49;99857.19;5031913;28;20389;-62
2021/11/23 08:34:59;;;;;;;8.90;2.83;;;;;;;1.21;51.36;99860.75;5032856;28;20044;-63
2021/11/23 08:37:27;;;;;;;8.35;3.30;;;;;;;1.28;51.45;99863.06;5013832;28;20038;-63
2021/11/23 08:39:57;;;;;;;10.32;3.00;;;;;;;1.46;51.59;99868.50;5030502;28;20462;-65
2021/11/23 08:42:24;;;;;;;6.82;3.20;;;;;;;1.57;50.83;99868.91;5031792;28;20086;-62
2021/11/23 08:44:50;;;;;;;7.82;3.35;;;;;;;1.73;50.22;99862.97;5013663;28;20033;-61
2021/11/23 08:47:17;;;;;;;12.30;3.47;;;;;;;1.80;49.97;99864.41;5030923;28;20370;-63
2021/11/23 08:49:44;;;;;;;8.05;3.63;;;;;;;1.82;49.76;99854.63;5031568;28;20164;-62
2021/11/23 08:52:12;;;;;;;9.90;3.95;;;;;;;1.77;50.03;99864.56;5030764;28;20533;-63
2021/11/23 08:54:38;;;;;;;7.03;3.55;;;;;;;1.56;50.23;99859.28;5030249;28;20030;-63
2021/11/23 08:57:07;;;;;;;12.68;3.58;;;;;;;1.22;50.83;99844.88;5041605;28;20044;-62
2021/11/23 08:59:39;;;;;;;8.15;3.45;;;;;;;0.92;52.19;99863.66;5042411;28;20033;-62
2021/11/23 09:02:06;;;;;;;8.65;3.42;;;;;;;0.63;52.38;99855.13;5044557;28;20124;-59
2021/11/23 09:04:34;;;;;;;7.85;3.17;;;;;;;0.45;53.08;99866.34;5051421;28;20029;-62
2021/11/23 09:07:03;;;;;;;11.00;3.67;;;;;;;0.25;53.77;99860.09;5048720;28;20033;-63
2021/11/23 09:09:30;;;;;;;8.63;3.33;;;;;;;0.12;53.50;99855.25;5047423;28;20037;-63
2021/11/23 09:11:58;;;;;;;7.00;3.10;;;;;;;-0.19;53.94;99830.06;5042268;28;20029;-64
2021/11/23 09:14:27;;;;;;;8.52;3.28;;;;;;;-0.07;54.09;99876.16;5030975;28;20068;-64
2021/11/23 09:16:52;;;;;;;9.70;3.17;;;;;;;-0.20;54.71;99859.06;5029540;28;20044;-63
2021/11/23 09:19:18;;;;;;;7.10;3.05;;;;;;;-0.19;54.80;99868.69;5029809;28;20025;-61
2021/11/23 09:21:43;;;;;;;10.57;3.20;;;;;;;-0.22;54.92;99867.03;5030239;28;20044;-62
2021/11/23 09:24:09;;;;;;;6.25;3.22;;;;;;;-0.23;54.55;99865.31;5029494;28;20071;-65
2021/11/23 09:26:35;;;;;;;8.10;2.78;;;;;;;-0.23;54.67;99864.44;5030099;28;20365;-63
2021/11/23 09:29:01;;;;;;;7.50;2.92;;;;;;;-0.34;54.78;99851.66;5029539;28;20413;-63
2021/11/23 09:31:26;;;;;;;15.35;3.97;;;;;;;-0.31;54.99;99860.31;5030968;28;20037;-64
2021/11/23 09:33:53;;;;;;;10.20;3.13;;;;;;;-0.26;55.07;99854.03;5033666;28;20037;-63
2021/11/23 09:36:18;;;;;;;7.30;3.30;;;;;;;-0.13;54.64;99851.81;5031218;28;20756;-62
2021/11/23 09:38:44;;;;;;;10.07;3.38;;;;;;;0.03;54.31;99852.97;5029555;28;20032;-61
2021/11/23 09:41:10;;;;;;;12.60;4.60;;;;;;;0.19;54.03;99861.16;5047316;28;20060;-62
2021/11/23 09:43:38;;;;;;;7.93;3.67;;;;;;;0.37;53.39;99851.72;5047141;28;20025;-60
2021/11/23 09:46:03;;;;;;;6.70;3.22;;;;;;;0.63;52.72;99841.94;5045985;28;20051;-60
2021/11/23 09:48:30;;;;;;;8.80;3.75;;;;;;;0.87;52.31;99844.53;5045731;28;20033;-59
2021/11/23 09:50:56;;;;;;;6.75;2.90;;;;;;;1.01;51.46;99843.97;5048605;28;20487;-59
2021/11/23 09:53:22;;;;;;;7.95;3.30;;;;;;;1.14;51.01;99839.03;5048540;28;20112;-62
2021/11/23 09:55:49;;;;;;;7.65;3.08;;;;;;;1.33;50.76;99844.44;5048991;28;20119;-61
2021/11/23 09:58:15;;;;;;;8.10;3.20;;;;;;;1.35;50.09;99828.53;5048698;28;20384;-61
2021/11/23 10:00:48;;;;;;;8.95;2.80;;;;;;;1.44;50.52;99843.94;5048884;28;20029;-60
2021/11/23 10:03:23;;;;;;;5.70;2.78;;;;;;;1.25;50.38;99799.91;5050046;28;20112;-60
2021/11/23 10:05:51;;;;;;;5.50;2.55;;;;;;;1.57;49.79;99839.03;5051136;28;20174;-61
2021/11/23 10:08:18;;;;;;;6.07;2.65;;;;;;;1.56;49.95;99843.44;5051241;28;20491;-59
2021/11/23 10:10:46;;;;;;;6.75;2.90;;;;;;;1.56;50.15;99848.72;5050585;28;20040;-58
2021/11/23 10:13:12;;;;;;;4.10;2.53;;;;;;;1.55;50.00;99843.50;5032822;28;20036;-61
2021/11/23 10:15:41;;;;;;;4.88;2.60;;;;;;;1.54;49.87;99845.28;5051174;28;20052;-60
2021/11/23 10:18:10;;;;;;;7.05;2.80;;;;;;;1.61;49.85;99853.81;5051206;28;20065;-61
2021/11/23 10:20:39;;;;;;;6.15;2.78;;;;;;;1.63;49.65;99854.59;5050697;28;20029;-60
2021/11/23 10:23:34;;;;;;;7.65;2.95;;;;;;;1.79;50.13;99845.97;5048824;28;20028;-58
2021/11/23 10:26:12;;;;;;;7.60;2.65;;;;;;;1.83;49.29;99843.16;5050407;28;20033;-63
2021/11/23 10:28:44;;;;;;;6.72;2.65;;;;;;;1.79;48.96;99844.22;5050539;28;20142;-59
2021/11/23 10:31:10;;;;;;;6.90;2.70;;;;;;;1.73;48.90;99826.03;5049801;28;20124;-67
2021/11/23 10:33:38;;;;;;;8.02;2.85;;;;;;;1.80;48.54;99838.00;5055480;28;20024;-58
2021/11/23 10:36:09;;;;;;;6.53;2.95;;;;;;;1.75;48.75;99847.94;5062230;28;20040;-62
2021/11/23 10:38:36;;;;;;;7.13;2.85;;;;;;;1.70;48.83;99842.00;5057467;28;20040;-56
2021/11/23 10:41:11;;;;;;;7.78;2.53;;;;;;;1.70;49.02;99842.84;5065356;28;20028;-60
2021/11/23 10:43:39;;;;;;;5.00;2.60;;;;;;;1.62;48.47;99837.03;5038010;28;20103;-63
2021/11/23 10:46:18;;;;;;;6.95;2.70;;;;;;;1.69;49.16;99835.84;5065863;28;20039;-61
2021/11/23 10:48:59;;;;;;;4.90;2.25;;;;;;;1.55;49.05;99807.41;5038646;28;20110;-59
2021/11/23 10:51:35;;;;;;;4.95;2.45;;;;;;;1.50;48.81;99841.06;5040445;28;20041;-58
2021/11/23 10:54:17;;;;;;;6.72;3.13;;;;;;;1.41;49.67;99833.53;5056225;28;20107;-58
2021/11/23 10:56:56;;;;;;;11.43;2.90;;;;;;;1.00;49.78;99806.22;5064667;28;20112;-60
2021/11/23 10:59:22;;;;;;;6.18;3.25;;;;;;;1.02;50.05;99836.94;5053488;28;20078;-66
2021/11/23 11:01:48;;;;;;;5.88;3.30;;;;;;;0.95;50.42;99834.50;5064235;28;20056;-63
2021/11/23 11:04:14;;;;;;;6.80;2.38;;;;;;;0.83;49.69;99796.34;5056628;28;20040;-57
2021/11/23 11:06:40;;;;;;;6.43;2.50;;;;;;;1.13;49.95;99832.94;5057676;28;20056;-62
2021/11/23 11:09:07;;;;;;;4.22;2.60;;;;;;;1.21;50.00;99826.47;5065008;28;20037;-60
2021/11/23 11:11:33;;;;;;;6.32;2.13;;;;;;;0.98;49.49;99796.63;5052640;28;20536;-67
2021/11/23 11:13:59;;;;;;;9.80;2.30;;;;;;;1.15;49.86;99822.28;5058177;28;20152;-63
2021/11/23 11:16:25;;;;;;;4.13;2.30;;;;;;;1.25;49.74;99841.22;5052780;28;20056;-62
2021/11/23 11:19:11;;;;;;;6.03;2.55;;;;;;;1.34;49.68;99829.44;5059295;28;20073;-63
2021/11/23 11:21:47;;;;;;;6.07;2.05;;;;;;;1.29;49.26;99829.63;5039469;28;20063;-56
2021/11/23 11:24:27;;;;;;;;;;;;;;;1.56;49.97;99832.00;5063518;28;20033;-68
2021/11/23 11:27:00;;;;;;;4.25;2.15;;;;;;;1.44;49.45;99825.47;5061132;28;19917;-62
2021/11/23 11:29:28;;;;;;;5.78;2.28;;;;;;;1.48;49.25;99835.00;5068518;28;20044;-60
2021/11/23 11:31:53;;;;;;;6.55;2.35;;;;;;;1.27;48.86;99798.06;5058817;28;20109;-56
2021/11/23 11:34:24;;;;;;;5.47;2.13;;;;;;;1.42;49.31;99835.25;5062919;28;20040;-63